Time;durP1;ratioP1;P1;durP2;ratioP2;P2;SDS_P1;SDS_P2;PMS_P1;PMS_P2;Temp;Humidity;BMP_temperature;BMP_pressure;BME280_temperature;BME280_humidity;BME280_pressure;Samples;Min_cycle;Max_cycle;Signal;HPM_P1;HPM_P2
2023/11/04 00:00:00;;;;;;;2.20;0.97;;;9.60;99.90;9.60;98091.00;;;;4910869;28;87884;-66
2023/11/04 00:02:26;;;;;;;1.67;0.60;;;9.70;99.90;9.60;98091.00;;;;4909076;28;117274;-66
2023/11/04 00:04:55;;;;;;;1.83;1.03;;;9.60;99.90;9.60;98098.00;;;;4912186;28;89183;-66
2023/11/04 00:07:21;;;;;;;1.33;0.60;;;9.60;99.90;9.60;98096.00;;;;4910469;28;87945;-66
2023/11/04 00:09:46;;;;;;;0.70;0.57;;;9.60;99.90;9.60;98099.00;;;;4911643;28;98829;-67
2023/11/04 00:12:12;;;;;;;1.03;0.83;;;9.60;99.90;9.50;98097.00;;;;4911473;28;94883;-67
2023/11/04 00:14:41;;;;;;;1.73;1.03;;;9.60;99.90;9.50;98102.00;;;;4910522;28;93795;-66
2023/11/04 00:17:09;;;;;;;1.47;1.10;;;9.60;99.90;9.50;98108.00;;;;4875268;28;110934;-67
2023/11/04 00:19:35;;;;;;;0.40;0.40;;;9.50;99.90;9.40;98116.00;;;;4909884;28;107958;-65
2023/11/04 00:22:01;;;;;;;1.80;0.60;;;9.50;99.90;9.40;98108.00;;;;4905070;28;114151;-68
2023/11/04 00:24:26;;;;;;;1.17;0.50;;;9.50;99.90;9.30;98115.00;;;;4905244;28;116542;-67
2023/11/04 00:26:52;;;;;;;3.40;0.97;;;9.50;99.90;9.30;98115.00;;;;4910021;28;110691;-67
2023/11/04 00:29:18;;;;;;;4.93;1.17;;;9.40;99.90;9.30;98124.00;;;;4908191;28;87145;-66
2023/11/04 00:31:43;;;;;;;0.87;0.60;;;9.30;99.90;9.20;98125.00;;;;4910963;28;118128;-68
2023/11/04 00:34:09;;;;;;;2.03;1.00;;;9.30;99.90;9.20;98130.00;;;;4906463;28;117432;-66
2023/11/04 00:36:35;;;;;;;3.40;0.93;;;9.30;99.90;9.10;98122.00;;;;4914511;28;109325;-66
2023/11/04 00:39:01;;;;;;;0.80;0.77;;;9.30;99.90;9.10;98131.00;;;;4914105;28;87873;-68
2023/11/04 00:41:27;;;;;;;4.37;0.67;;;9.20;99.90;9.10;98123.00;;;;4911745;28;88675;-67
2023/11/04 00:43:52;;;;;;;1.07;0.93;;;9.10;99.90;9.00;98134.00;;;;4914994;28;97438;-66
2023/11/04 00:46:18;;;;;;;0.63;0.53;;;9.10;99.90;9.00;98142.00;;;;4913549;28;87680;-68
2023/11/04 00:48:44;;;;;;;2.57;0.53;;;9.10;99.90;9.00;98129.00;;;;4913480;28;108504;-66
2023/11/04 00:51:09;;;;;;;1.20;0.83;;;9.10;99.90;9.00;98139.00;;;;4917637;28;117049;-68
2023/11/04 00:53:35;;;;;;;1.00;0.60;;;9.10;99.90;8.90;98144.00;;;;4916770;28;89545;-67
2023/11/04 00:56:01;;;;;;;0.67;0.67;;;9.00;99.90;8.90;98141.00;;;;4918261;28;109022;-69
2023/11/04 00:58:26;;;;;;;1.23;0.63;;;9.00;99.90;8.90;98140.00;;;;4915533;28;87804;-66
2023/11/04 01:00:52;;;;;;;1.20;1.00;;;8.90;99.90;8.90;98141.00;;;;4917195;28;117836;-67
2023/11/04 01:03:18;;;;;;;1.70;1.10;;;8.90;99.90;8.80;98146.00;;;;4911440;28;88353;-66
2023/11/04 01:05:47;;;;;;;0.67;0.63;;;8.90;99.90;8.80;98151.00;;;;4902570;28;87794;-65
2023/11/04 01:08:12;;;;;;;1.67;1.07;;;9.10;99.90;8.80;98154.00;;;;4896689;28;87946;-66
2023/11/04 01:10:38;;;;;;;2.73;1.10;;;8.90;99.90;8.80;98156.00;;;;4913297;28;117581;-68
2023/11/04 01:13:04;;;;;;;0.77;0.73;;;8.80;99.90;8.80;98155.00;;;;4897658;28;87678;-68
2023/11/04 01:15:29;;;;;;;5.43;1.20;;;8.80;99.90;8.80;98162.00;;;;4908392;28;87870;-67
2023/11/04 01:17:55;;;;;;;6.03;1.77;;;8.80;99.90;8.80;98154.00;;;;4891950;28;109906;-66
2023/11/04 01:20:21;;;;;;;1.53;0.80;;;8.80;99.90;8.80;98159.00;;;;4893274;28;119416;-67
2023/11/04 01:22:47;;;;;;;1.03;0.93;;;8.80;99.90;8.80;98161.00;;;;4888599;28;87855;-68
2023/11/04 01:25:13;;;;;;;3.63;1.47;;;8.80;99.90;8.80;98160.00;;;;4894523;28;88907;-67
2023/11/04 01:27:38;;;;;;;3.80;1.13;;;8.80;99.90;8.80;98155.00;;;;4882548;28;108873;-66
2023/11/04 01:30:05;;;;;;;3.23;0.97;;;8.80;99.90;8.80;98162.00;;;;4893094;28;118956;-67
2023/11/04 01:32:30;;;;;;;0.70;0.70;;;8.80;99.90;8.80;98155.00;;;;4884401;28;93384;-67
2023/11/04 01:34:57;;;;;;;1.97;0.77;;;8.90;99.90;8.80;98164.00;;;;4883784;28;87696;-67
2023/11/04 01:37:25;;;;;;;0.97;0.70;;;8.80;99.90;8.80;98161.00;;;;4889579;28;88208;-68
2023/11/04 01:39:52;;;;;;;1.77;1.27;;;8.80;99.90;8.80;98165.00;;;;4874502;28;90700;-66
2023/11/04 01:42:17;;;;;;;3.23;0.93;;;8.90;99.90;8.80;98165.00;;;;4888102;28;88026;-67
2023/11/04 01:44:43;;;;;;;1.70;1.00;;;8.90;99.90;8.80;98167.00;;;;4868385;28;114439;-68
2023/11/04 01:47:10;;;;;;;2.00;0.57;;;8.90;99.90;8.90;98168.00;;;;4893850;28;105427;-66
2023/11/04 01:49:36;;;;;;;1.17;0.70;;;8.90;99.90;8.80;98163.00;;;;4879411;28;88795;-67
2023/11/04 01:52:03;;;;;;;0.90;0.90;;;8.90;99.90;8.90;98168.00;;;;4876419;28;107383;-67
2023/11/04 01:54:29;;;;;;;3.40;1.37;;;9.00;99.90;8.90;98165.00;;;;4892972;28;87618;-67
2023/11/04 01:56:55;;;;;;;0.87;0.87;;;9.00;99.90;8.90;98179.00;;;;4892375;28;87734;-66
2023/11/04 01:59:22;;;;;;;2.10;0.87;;;8.90;99.90;8.90;98176.00;;;;4886147;28;117485;-66
2023/11/04 02:01:48;;;;;;;0.80;0.70;;;9.00;99.90;8.90;98172.00;;;;4894298;28;88945;-66
2023/11/04 02:04:15;;;;;;;0.30;0.30;;;8.90;99.90;8.90;98168.00;;;;4885342;28;87890;-66
2023/11/04 02:06:41;;;;;;;3.10;0.50;;;9.00;99.90;8.90;98176.00;;;;4894820;28;86995;-66
2023/11/04 02:09:06;;;;;;;0.73;0.70;;;9.00;99.90;8.90;98177.00;;;;4867780;28;115273;-67
2023/11/04 02:11:33;;;;;;;2.20;0.87;;;9.00;99.90;8.90;98177.00;;;;4894472;28;87908;-67
2023/11/04 02:13:58;;;;;;;5.53;1.17;;;9.00;99.90;8.90;98182.00;;;;4893165;28;88447;-66
2023/11/04 02:16:24;;;;;;;2.20;0.70;;;9.00;99.90;8.80;98175.00;;;;4894559;28;109446;-66
2023/11/04 02:18:51;;;;;;;3.80;0.97;;;8.90;99.90;8.80;98179.00;;;;4913588;28;113395;-67
2023/11/04 02:21:16;;;;;;;1.03;0.87;;;8.90;99.90;8.80;98179.00;;;;4892732;28;89289;-67
2023/11/04 02:23:48;;;;;;;0.83;0.70;;;10.20;99.90;8.70;98175.00;;;;4912835;28;87847;-67
2023/11/04 02:26:14;;;;;;;1.30;0.90;;;8.80;99.90;8.70;98180.00;;;;4910608;28;87805;-68
2023/11/04 02:28:39;;;;;;;3.60;0.97;;;8.70;99.90;8.70;98181.00;;;;4911240;28;117399;-66
2023/11/04 02:31:05;;;;;;;1.00;0.77;;;9.20;99.90;8.60;98182.00;;;;4912617;28;92818;-66
2023/11/04 02:33:30;;;;;;;3.73;0.83;;;8.70;99.90;8.60;98186.00;;;;4911023;28;109285;-68
2023/11/04 02:35:57;;;;;;;4.53;0.77;;;8.70;99.90;8.60;98180.00;;;;4912428;28;109778;-67
2023/11/04 02:38:23;;;;;;;4.83;1.13;;;8.70;99.90;8.60;98185.00;;;;4911934;28;89912;-66
2023/11/04 02:40:48;;;;;;;0.63;0.60;;;8.70;99.90;8.50;98187.00;;;;4913653;28;89805;-66
2023/11/04 02:43:14;;;;;;;1.03;0.60;;;8.60;99.90;8.50;98178.00;;;;4913656;28;87880;-68
2023/11/04 02:45:40;;;;;;;0.87;0.87;;;8.60;99.90;8.50;98188.00;;;;4910252;28;108035;-66
2023/11/04 02:48:06;;;;;;;2.87;1.03;;;8.60;99.90;8.50;98188.00;;;;4902315;28;102855;-65
2023/11/04 02:50:31;;;;;;;1.63;0.80;;;8.60;99.90;8.40;98184.00;;;;4913511;28;88184;-65
2023/11/04 02:52:57;;;;;;;1.30;0.70;;;8.50;99.90;8.50;98195.00;;;;4895303;28;94380;-67
2023/11/04 02:55:23;;;;;;;1.13;0.87;;;8.50;99.90;8.40;98190.00;;;;4909980;28;87065;-65
2023/11/04 02:57:49;;;;;;;1.13;0.70;;;7.20;99.90;8.40;98190.00;;;;4911881;28;87749;-67
2023/11/04 03:00:15;;;;;;;1.67;1.17;;;8.50;99.90;8.40;98188.00;;;;4910174;28;115671;-68
2023/11/04 03:02:41;;;;;;;8.10;0.93;;;8.50;99.90;8.40;98198.00;;;;4908504;28;101294;-67
2023/11/04 03:05:07;;;;;;;0.77;0.57;;;8.50;99.90;8.40;98204.00;;;;4912215;28;107622;-66
2023/11/04 03:07:33;;;;;;;2.87;1.33;;;8.50;99.90;8.40;98197.00;;;;4913848;28;112515;-67
2023/11/04 03:09:59;;;;;;;2.83;0.90;;;8.50;99.90;8.40;98204.00;;;;4913344;28;89301;-66
2023/11/04 03:12:24;;;;;;;1.87;0.90;;;8.50;99.90;8.40;98203.00;;;;4912944;28;87799;-69
2023/11/04 03:14:51;;;;;;;4.67;0.83;;;8.50;99.90;8.30;98195.00;;;;4901291;28;87733;-68
2023/11/04 03:17:17;;;;;;;0.97;0.80;;;8.40;99.90;8.30;98207.00;;;;4906749;28;120253;-66
2023/11/04 03:19:46;;;;;;;1.63;1.07;;;8.40;99.90;8.30;98198.00;;;;4900080;28;89393;-68
2023/11/04 03:22:12;;;;;;;1.10;0.77;;;8.40;99.90;8.30;98208.00;;;;4914985;28;88049;-67
2023/11/04 03:24:45;;;;;;;1.10;1.00;;;8.40;99.90;8.30;98207.00;;;;4915202;28;96265;-66
2023/11/04 03:27:12;;;;;;;1.73;0.83;;;8.40;99.90;8.30;98199.00;;;;4907317;28;103530;-66
2023/11/04 03:29:38;;;;;;;0.97;0.80;;;8.30;99.90;8.20;98193.00;;;;4895366;28;88474;-68
2023/11/04 03:32:05;;;;;;;3.47;0.90;;;8.30;99.90;8.30;98207.00;;;;4895142;28;88070;-68
2023/11/04 03:34:31;;;;;;;2.07;0.83;;;8.30;99.90;8.20;98208.00;;;;4916298;28;87676;-67
2023/11/04 03:36:57;;;;;;;0.67;0.60;;;8.30;99.90;8.20;98207.00;;;;4910766;28;89037;-67
2023/11/04 03:39:23;;;;;;;0.93;0.93;;;8.30;99.90;8.20;98204.00;;;;4911622;28;88091;-67
2023/11/04 03:41:49;;;;;;;1.77;0.53;;;8.30;99.90;8.20;98210.00;;;;4912908;28;87934;-68
2023/11/04 03:44:16;;;;;;;2.53;0.80;;;8.30;99.90;8.20;98213.00;;;;4916687;28;87091;-68
2023/11/04 03:46:41;;;;;;;2.10;0.97;;;8.30;99.90;8.20;98212.00;;;;4911867;28;87778;-69
2023/11/04 03:49:07;;;;;;;1.57;0.63;;;8.30;99.90;8.20;98209.00;;;;4911357;28;117279;-66
2023/11/04 03:51:34;;;;;;;1.47;0.47;;;8.20;99.90;8.10;98211.00;;;;4908735;28;88402;-66
2023/11/04 03:53:59;;;;;;;2.97;0.97;;;8.30;99.90;8.10;98210.00;;;;4910964;28;88096;-66
2023/11/04 03:56:25;;;;;;;0.90;0.73;;;8.20;99.90;8.10;98210.00;;;;4907044;28;115484;-66
2023/11/04 03:58:51;;;;;;;0.90;0.80;;;8.20;99.90;8.10;98202.00;;;;4911767;28;116908;-67
2023/11/04 04:01:16;;;;;;;1.67;0.83;;;8.10;99.90;8.00;98213.00;;;;4913906;28;110292;-66
2023/11/04 04:03:42;;;;;;;0.67;0.40;;;8.20;99.90;8.00;98212.00;;;;4912671;28;108742;-67
2023/11/04 04:06:08;;;;;;;2.87;1.10;;;8.10;99.90;8.00;98213.00;;;;4907293;28;115980;-66
2023/11/04 04:08:33;;;;;;;1.27;0.90;;;8.10;99.90;7.90;98205.00;;;;4897489;28;89927;-66
2023/11/04 04:10:59;;;;;;;1.17;0.63;;;8.00;99.90;7.90;98204.00;;;;4913016;28;110798;-68
2023/11/04 04:13:25;;;;;;;5.57;1.07;;;8.00;99.90;7.90;98195.00;;;;4909899;28;88063;-66
2023/11/04 04:15:52;;;;;;;1.67;0.93;;;8.00;99.90;7.90;98210.00;;;;4915257;28;88670;-67
2023/11/04 04:18:27;;;;;;;1.33;0.63;;;8.00;99.90;7.80;98196.00;;;;4916909;28;88122;-66
2023/11/04 04:20:52;;;;;;;0.40;0.40;;;7.90;99.90;7.80;98204.00;;;;4914018;28;108842;-65
2023/11/04 04:23:18;;;;;;;0.83;0.60;;;8.50;99.90;7.80;98196.00;;;;4912811;28;108565;-67
2023/11/04 04:25:44;;;;;;;1.77;0.80;;;7.90;99.90;7.80;98198.00;;;;4897743;28;118326;-65
2023/11/04 04:28:09;;;;;;;0.90;0.80;;;7.90;99.90;7.80;98203.00;;;;4915644;28;116687;-65
2023/11/04 04:30:35;;;;;;;2.33;1.23;;;7.90;99.90;7.70;98206.00;;;;4915302;28;110083;-66
2023/11/04 04:33:01;;;;;;;0.50;0.50;;;8.00;99.90;7.70;98194.00;;;;4914230;28;107800;-67
2023/11/04 04:35:28;;;;;;;1.53;1.37;;;8.30;99.90;7.70;98204.00;;;;4918505;28;115000;-68
2023/11/04 04:37:54;;;;;;;1.43;0.97;;;7.80;99.90;7.70;98197.00;;;;4917254;28;88362;-67
2023/11/04 04:40:19;;;;;;;1.60;0.50;;;7.80;99.90;7.70;98195.00;;;;4913136;28;109431;-67
2023/11/04 04:42:45;;;;;;;2.33;0.83;;;7.80;99.90;7.70;98194.00;;;;4914193;28;88104;-69
2023/11/04 04:45:11;;;;;;;0.77;0.77;;;7.70;99.90;7.60;98196.00;;;;4898091;28;107898;-69
2023/11/04 04:47:38;;;;;;;1.27;1.00;;;7.70;99.90;7.60;98202.00;;;;4914117;28;111402;-69
2023/11/04 04:50:07;;;;;;;1.03;0.77;;;8.10;99.90;7.60;98200.00;;;;4911439;28;87986;-68
2023/11/04 04:52:33;;;;;;;1.13;1.00;;;7.70;99.90;7.50;98192.00;;;;4911253;28;88074;-67
2023/11/04 04:54:59;;;;;;;0.93;0.70;;;7.70;99.90;7.50;98196.00;;;;4915679;28;89033;-68
2023/11/04 04:57:25;;;;;;;1.70;0.93;;;7.60;99.90;7.40;98199.00;;;;4912963;28;116884;-66
2023/11/04 04:59:51;;;;;;;0.77;0.77;;;7.60;99.90;7.40;98199.00;;;;4917096;28;89367;-66
2023/11/04 05:02:18;;;;;;;0.80;0.60;;;7.70;99.90;7.30;98200.00;;;;4913624;28;109042;-66
2023/11/04 05:04:43;;;;;;;6.30;0.93;;;7.60;99.90;7.30;98203.00;;;;4911873;28;90033;-66
2023/11/04 05:07:09;;;;;;;0.93;0.73;;;7.40;99.90;7.30;98197.00;;;;4911510;28;117475;-65
2023/11/04 05:09:35;;;;;;;1.53;0.97;;;7.40;99.90;7.20;98204.00;;;;4916649;28;109593;-65
2023/11/04 05:12:00;;;;;;;1.03;0.93;;;7.30;99.90;7.20;98202.00;;;;4897781;28;87553;-69
2023/11/04 05:14:26;;;;;;;7.20;1.97;;;7.30;99.90;7.10;98195.00;;;;4878842;28;89337;-68
2023/11/04 05:16:52;;;;;;;1.97;1.00;;;7.30;99.90;7.10;98192.00;;;;4896756;28;116583;-67
2023/11/04 05:19:18;;;;;;;9.00;1.17;;;7.30;99.90;7.00;98199.00;;;;4893818;28;101747;-67
2023/11/04 05:21:44;;;;;;;2.40;1.00;;;8.50;99.90;7.00;98204.00;;;;4911387;28;87134;-65
2023/11/04 05:24:10;;;;;;;0.60;0.60;;;7.20;99.90;7.00;98195.00;;;;4913802;28;88882;-67
2023/11/04 05:26:40;;;;;;;2.30;1.10;;;7.60;99.90;7.00;98211.00;;;;4913214;28;117944;-68
2023/11/04 05:29:09;;;;;;;2.10;1.20;;;7.10;99.90;6.90;98209.00;;;;4911488;28;89785;-68
2023/11/04 05:31:36;;;;;;;3.87;1.13;;;7.10;99.90;6.90;98201.00;;;;4913540;28;95789;-68
2023/11/04 05:34:01;;;;;;;1.53;1.03;;;7.00;99.90;6.90;98198.00;;;;4917029;28;89228;-69
2023/11/04 05:36:27;;;;;;;2.97;0.90;;;7.00;99.90;6.90;98215.00;;;;4902521;28;116484;-66
2023/11/04 05:38:53;;;;;;;1.17;1.10;;;7.00;99.90;6.80;98217.00;;;;4912316;28;104240;-65
2023/11/04 05:41:19;;;;;;;1.47;1.37;;;6.90;99.90;6.80;98214.00;;;;4911854;28;87577;-66
2023/11/04 05:43:45;;;;;;;0.80;0.80;;;7.00;99.90;6.80;98219.00;;;;4912376;28;117250;-67
2023/11/04 05:46:11;;;;;;;4.43;1.00;;;6.90;99.90;6.80;98213.00;;;;4913033;28;87845;-69
2023/11/04 05:48:37;;;;;;;2.50;0.90;;;7.30;99.90;6.80;98219.00;;;;4911918;28;88001;-67
2023/11/04 05:51:05;;;;;;;2.67;0.70;;;7.00;99.90;6.80;98214.00;;;;4910775;28;87998;-66
2023/11/04 05:53:31;;;;;;;0.73;0.67;;;6.90;99.90;6.80;98218.00;;;;4911837;28;89344;-67
2023/11/04 05:55:57;;;;;;;0.63;0.63;;;7.70;99.90;6.70;98227.00;;;;4912036;28;116921;-67
2023/11/04 05:58:23;;;;;;;1.07;0.90;;;7.30;99.90;6.70;98232.00;;;;4914925;28;87949;-65
2023/11/04 06:00:49;;;;;;;0.60;0.60;;;6.80;99.90;6.60;98208.00;;;;4910910;28;88266;-68
2023/11/04 06:03:14;;;;;;;4.00;0.97;;;6.80;99.90;6.60;98215.00;;;;4898295;28;87899;-66
2023/11/04 06:05:40;;;;;;;3.27;1.00;;;6.80;99.90;6.60;98210.00;;;;4911861;28;88428;-68
2023/11/04 06:08:06;;;;;;;1.13;0.90;;;6.70;99.90;6.60;98220.00;;;;4911846;28;87647;-66
2023/11/04 06:10:32;;;;;;;2.60;0.77;;;6.70;99.90;6.50;98219.00;;;;4901026;28;108429;-66
2023/11/04 06:12:58;;;;;;;1.43;0.93;;;6.20;99.90;6.60;98223.00;;;;4913414;28;116826;-66
2023/11/04 06:15:24;;;;;;;4.00;0.93;;;6.70;99.90;6.50;98223.00;;;;4911475;28;87557;-67
2023/11/04 06:17:50;;;;;;;2.10;1.20;;;6.70;99.90;6.50;98217.00;;;;4911255;28;88816;-68
2023/11/04 06:20:18;;;;;;;0.50;0.50;;;6.90;99.90;6.50;98209.00;;;;4921156;28;89359;-66
2023/11/04 06:22:43;;;;;;;1.20;0.97;;;6.70;99.90;6.50;98215.00;;;;4915986;28;88399;-66
2023/11/04 06:25:09;;;;;;;0.73;0.63;;;6.70;99.90;6.50;98210.00;;;;4914388;28;91401;-66
2023/11/04 06:27:35;;;;;;;3.23;1.00;;;7.10;99.90;6.50;98215.00;;;;4910082;28;110865;-66
2023/11/04 06:30:01;;;;;;;1.90;1.13;;;6.60;99.90;6.50;98224.00;;;;4908013;28;87903;-68
2023/11/04 06:32:26;;;;;;;1.03;0.90;;;6.50;99.90;6.40;98212.00;;;;4907892;28;113633;-68
2023/11/04 06:34:52;;;;;;;1.50;0.93;;;7.10;99.90;6.40;98217.00;;;;4908326;28;116969;-68
2023/11/04 06:37:18;;;;;;;1.97;1.33;;;6.60;99.90;6.40;98205.00;;;;4904788;28;111190;-68
2023/11/04 06:39:43;;;;;;;1.10;1.03;;;6.50;99.90;6.30;98203.00;;;;4893032;28;107171;-69
2023/11/04 06:42:14;;;;;;;0.83;0.80;;;6.50;99.90;6.40;98211.00;;;;4895584;28;118175;-68
2023/11/04 06:44:39;;;;;;;1.87;1.00;;;6.90;99.90;6.40;98205.00;;;;4907996;28;89886;-68
2023/11/04 06:47:06;;;;;;;1.20;0.77;;;5.30;99.90;6.50;98216.00;;;;4907044;28;110237;-69
2023/11/04 06:49:31;;;;;;;1.87;0.97;;;6.70;99.90;6.60;98210.00;;;;4908481;28;88510;-67
2023/11/04 06:51:57;;;;;;;3.67;1.60;;;6.70;99.90;6.80;98206.00;;;;4906945;28;116629;-67
2023/11/04 06:54:23;;;;;;;2.67;0.50;;;6.90;99.90;6.90;98210.00;;;;4897205;28;88021;-67
2023/11/04 06:56:48;;;;;;;2.10;0.70;;;7.00;99.90;7.00;98216.00;;;;4907480;28;88081;-68
2023/11/04 06:59:17;;;;;;;0.97;0.50;;;7.00;99.90;7.10;98220.00;;;;4907361;28;87171;-68
2023/11/04 07:01:50;;;;;;;1.10;0.60;;;7.20;99.90;7.10;98209.00;;;;4910373;28;87924;-68
2023/11/04 07:04:16;;;;;;;1.27;1.17;;;7.20;99.90;7.30;98213.00;;;;4907705;28;92954;-68
2023/11/04 07:06:42;;;;;;;1.50;1.07;;;7.70;99.90;7.40;98202.00;;;;4907649;28;88786;-68
2023/11/04 07:09:08;;;;;;;0.63;0.63;;;7.50;99.90;7.60;98204.00;;;;4909155;28;87813;-68
2023/11/04 07:11:34;;;;;;;1.83;0.67;;;7.60;99.90;7.80;98214.00;;;;4893395;28;90019;-68
2023/11/04 07:14:00;;;;;;;3.43;1.53;;;7.80;99.90;7.90;98206.00;;;;4907521;28;93750;-68
2023/11/04 07:16:25;;;;;;;0.40;0.40;;;7.90;99.90;8.00;98204.00;;;;4886920;28;87581;-68
2023/11/04 07:18:51;;;;;;;1.33;0.70;;;8.00;99.90;8.10;98204.00;;;;4887628;28;109172;-68
2023/11/04 07:21:18;;;;;;;1.03;0.93;;;8.20;99.90;8.10;98196.00;;;;4905793;28;116420;-67
2023/11/04 07:23:44;;;;;;;2.63;1.20;;;8.30;99.90;8.20;98195.00;;;;4894390;28;88882;-68
2023/11/04 07:26:09;;;;;;;11.93;0.77;;;8.30;99.90;8.30;98194.00;;;;4911911;28;109737;-68
2023/11/04 07:28:35;;;;;;;10.37;0.83;;;8.40;99.90;8.30;98208.00;;;;4909381;28;87641;-67
2023/11/04 07:31:05;;;;;;;1.87;1.03;;;8.40;99.90;8.40;98211.00;;;;4908591;28;90129;-65
2023/11/04 07:33:31;;;;;;;1.37;0.57;;;8.50;99.90;8.40;98199.00;;;;4909582;28;89466;-66
2023/11/04 07:35:57;;;;;;;1.40;1.10;;;8.50;99.90;8.50;98201.00;;;;4908182;28;88026;-66
2023/11/04 07:38:23;;;;;;;2.10;1.73;;;8.60;99.90;8.50;98208.00;;;;4911200;28;87970;-67
2023/11/04 07:40:49;;;;;;;0.90;0.50;;;8.60;99.90;8.60;98210.00;;;;4908633;28;88333;-66
2023/11/04 07:43:16;;;;;;;2.53;0.50;;;8.70;99.90;8.70;98204.00;;;;4909952;28;91250;-66
2023/11/04 07:45:43;;;;;;;0.77;0.57;;;8.80;99.90;8.80;98205.00;;;;4907341;28;88483;-66
2023/11/04 07:48:09;;;;;;;5.60;1.13;;;8.80;99.90;8.80;98212.00;;;;4905512;28;86980;-66
2023/11/04 07:50:36;;;;;;;0.57;0.57;;;8.90;99.90;8.90;98205.00;;;;4886728;28;87790;-67
2023/11/04 07:53:02;;;;;;;2.20;0.97;;;8.90;99.90;8.90;98201.00;;;;4905693;28;89275;-66
2023/11/04 07:55:28;;;;;;;10.00;1.10;;;9.00;99.90;8.90;98199.00;;;;4903294;28;88909;-67
2023/11/04 07:57:53;;;;;;;0.90;0.90;;;9.00;99.90;8.90;98197.00;;;;4906187;28;108598;-67
2023/11/04 08:00:19;;;;;;;0.87;0.80;;;9.00;99.90;8.90;98198.00;;;;4905866;28;103351;-67
2023/11/04 08:02:47;;;;;;;1.30;1.13;;;9.00;99.90;8.90;98190.00;;;;4907099;28;87991;-66
2023/11/04 08:05:14;;;;;;;6.40;1.80;;;9.00;99.90;8.80;98188.00;;;;4908717;28;87436;-66
2023/11/04 08:07:41;;;;;;;2.53;2.10;;;8.90;99.90;8.80;98199.00;;;;4910985;28;87689;-66
2023/11/04 08:10:08;;;;;;;2.70;2.07;;;8.90;99.90;8.80;98191.00;;;;4904248;28;117392;-66
2023/11/04 08:12:34;;;;;;;4.13;3.73;;;8.90;99.90;8.80;98182.00;;;;4907189;28;87013;-65
2023/11/04 08:15:00;;;;;;;4.07;3.33;;;8.90;99.90;8.90;98172.00;;;;4904334;28;111472;-66
2023/11/04 08:17:27;;;;;;;2.90;1.87;;;8.90;99.90;8.90;98178.00;;;;4906353;28;87543;-67
2023/11/04 08:19:52;;;;;;;2.57;2.23;;;8.90;99.90;9.00;98182.00;;;;4896875;28;109652;-67
2023/11/04 08:22:18;;;;;;;7.70;3.70;;;9.00;99.90;9.20;98177.00;;;;4902855;28;88626;-67
2023/11/04 08:24:44;;;;;;;5.93;3.57;;;9.20;99.90;9.30;98173.00;;;;4906777;28;111230;-68
2023/11/04 08:27:10;;;;;;;4.13;3.30;;;9.30;99.90;9.60;98182.00;;;;4907763;28;87928;-67
2023/11/04 08:29:37;;;;;;;3.33;1.83;;;9.50;99.90;9.80;98168.00;;;;4907124;28;89031;-67
2023/11/04 08:32:03;;;;;;;3.70;2.27;;;9.80;99.90;10.00;98164.00;;;;4893700;28;116398;-69
2023/11/04 08:34:28;;;;;;;5.30;1.33;;;10.00;99.90;10.30;98177.00;;;;4880319;28;87893;-66
2023/11/04 08:36:54;;;;;;;0.30;0.30;;;10.20;99.90;10.50;98163.00;;;;4903573;28;110640;-66
2023/11/04 08:39:20;;;;;;;1.37;1.10;;;10.40;99.90;10.70;98165.00;;;;4907823;28;117485;-65
2023/11/04 08:41:46;;;;;;;1.53;1.40;;;10.60;99.90;10.80;98161.00;;;;4903939;28;88846;-67
2023/11/04 08:44:12;;;;;;;3.60;2.47;;;10.70;99.90;11.00;98165.00;;;;4910788;28;88875;-68
2023/11/04 08:46:38;;;;;;;5.00;3.00;;;10.90;99.90;11.20;98168.00;;;;4892370;28;87733;-67
2023/11/04 08:49:06;;;;;;;0.70;0.63;;;11.10;99.90;11.40;98154.00;;;;4908186;28;118513;-68
2023/11/04 08:51:33;;;;;;;0.50;0.50;;;11.30;99.90;11.60;98156.00;;;;4889000;28;87903;-66
2023/11/04 08:53:59;;;;;;;0.60;0.50;;;11.40;99.90;11.90;98163.00;;;;4908398;28;87752;-68
2023/11/04 08:56:24;;;;;;;1.43;0.60;;;11.90;99.90;12.10;98159.00;;;;4908243;28;87753;-66
2023/11/04 08:58:53;;;;;;;6.07;1.23;;;12.00;98.90;12.40;98159.00;;;;4911972;28;117436;-69
2023/11/04 09:01:20;;;;;;;0.50;0.43;;;12.20;98.00;12.70;98152.00;;;;4916889;28;88512;-68
2023/11/04 09:03:46;;;;;;;1.90;0.87;;;12.50;97.70;12.90;98153.00;;;;4900376;28;87790;-66
2023/11/04 09:06:12;;;;;;;2.00;0.60;;;12.80;97.00;13.10;98158.00;;;;4887507;28;87516;-69
2023/11/04 09:08:38;;;;;;;1.90;0.70;;;13.00;96.30;13.30;98151.00;;;;4910869;28;99776;-66
2023/11/04 09:11:04;;;;;;;0.37;0.30;;;13.20;95.40;13.40;98148.00;;;;4908663;28;89346;-66
2023/11/04 09:13:30;;;;;;;0.33;0.33;;;13.30;93.70;13.50;98145.00;;;;4896014;28;110642;-67
2023/11/04 09:15:55;;;;;;;1.47;1.03;;;13.40;93.90;13.50;98148.00;;;;4909632;28;105232;-67
2023/11/04 09:18:21;;;;;;;2.17;0.63;;;13.50;91.90;13.60;98159.00;;;;4902887;28;116641;-67
2023/11/04 09:20:47;;;;;;;1.77;1.00;;;13.60;92.90;13.70;98157.00;;;;4892822;28;119307;-67
2023/11/04 09:23:12;;;;;;;0.70;0.70;;;14.00;92.60;13.90;98155.00;;;;4909146;28;88057;-66
2023/11/04 09:25:41;;;;;;;5.80;0.90;;;13.80;92.50;14.20;98151.00;;;;4912318;28;86956;-67
2023/11/04 09:28:06;;;;;;;1.80;0.70;;;14.00;92.60;14.40;98156.00;;;;4893939;28;87792;-67
2023/11/04 09:30:33;;;;;;;2.60;1.17;;;14.20;91.00;14.50;98147.00;;;;4891696;28;89768;-66
2023/11/04 09:32:58;;;;;;;1.20;1.02;;;14.40;90.10;14.60;98151.00;;;;4909069;28;88944;-68
2023/11/04 09:35:24;;;;;;;2.85;1.20;;;15.10;89.70;14.60;98145.00;;;;4908067;28;87998;-68
2023/11/04 09:37:50;;;;;;;0.63;0.50;;;14.50;87.80;14.70;98149.00;;;;4907409;28;117427;-66
2023/11/04 09:40:16;;;;;;;1.75;1.40;;;14.60;88.60;14.70;98154.00;;;;4906313;28;117982;-68
2023/11/04 09:42:44;;;;;;;0.93;0.75;;;14.60;87.60;14.80;98140.00;;;;4909077;28;88976;-66
2023/11/04 09:45:10;;;;;;;1.55;0.70;;;14.70;88.30;14.90;98135.00;;;;4894890;28;87771;-66
2023/11/04 09:47:36;;;;;;;0.30;0.30;;;14.80;85.90;14.90;98150.00;;;;4908288;28;87600;-67
2023/11/04 09:50:02;;;;;;;3.50;0.43;;;15.00;84.30;14.90;98154.00;;;;4877982;28;87364;-66
2023/11/04 09:52:30;;;;;;;0.43;0.30;;;14.80;82.80;14.70;98139.00;;;;4873756;28;87872;-67
2023/11/04 09:55:00;;;;;;;0.40;0.40;;;14.80;82.50;14.80;98140.00;;;;4909530;28;87870;-66
2023/11/04 09:57:27;;;;;;;1.10;0.60;;;14.70;83.70;14.90;98156.00;;;;4887159;28;89479;-67
2023/11/04 09:59:53;;;;;;;0.35;0.28;;;14.80;83.20;15.00;98140.00;;;;4912741;28;88830;-66
2023/11/04 10:02:19;;;;;;;0.70;0.47;;;14.90;83.20;15.10;98145.00;;;;4907406;28;87613;-65
2023/11/04 10:04:44;;;;;;;0.47;0.30;;;15.00;83.00;15.20;98146.00;;;;4891391;28;88038;-66
2023/11/04 10:07:10;;;;;;;0.38;0.28;;;15.10;82.50;15.30;98136.00;;;;4910400;28;117463;-66
2023/11/04 10:09:37;;;;;;;0.85;0.30;;;15.30;82.00;15.40;98130.00;;;;4903233;28;116090;-66
2023/11/04 10:12:04;;;;;;;1.88;0.98;;;15.30;81.70;15.60;98137.00;;;;4909397;28;87917;-68
2023/11/04 10:14:30;;;;;;;1.10;0.50;;;15.40;81.00;15.50;98130.00;;;;4893945;28;87179;-67
2023/11/04 10:16:56;;;;;;;2.55;0.70;;;15.50;78.00;15.50;98128.00;;;;4903921;28;87974;-68
2023/11/04 10:19:22;;;;;;;1.10;0.65;;;15.40;77.30;15.50;98129.00;;;;4909394;28;111236;-67
2023/11/04 10:21:48;;;;;;;0.77;0.32;;;15.40;77.50;15.70;98126.00;;;;4891780;28;93779;-65
2023/11/04 10:24:15;;;;;;;1.75;0.50;;;15.50;77.60;15.80;98125.00;;;;4893902;28;87491;-66
2023/11/04 10:26:42;;;;;;;0.47;0.20;;;15.60;77.70;15.90;98122.00;;;;4910174;28;87865;-66
2023/11/04 10:29:08;;;;;;;1.17;0.75;;;15.70;76.30;15.70;98112.00;;;;4908568;28;88494;-67
2023/11/04 10:31:35;;;;;;;0.80;0.60;;;15.70;75.30;15.70;98117.00;;;;4911147;28;88002;-67
2023/11/04 10:34:04;;;;;;;0.82;0.80;;;15.60;75.10;15.60;98115.00;;;;4911667;28;89003;-67
2023/11/04 10:36:38;;;;;;;0.70;0.70;;;15.60;75.10;15.40;98103.00;;;;4905922;28;117756;-67
2023/11/04 10:39:08;;;;;;;0.43;0.43;;;14.70;74.20;15.10;98107.00;;;;4892541;28;87242;-67
2023/11/04 10:41:43;;;;;;;0.68;0.50;;;15.20;75.10;14.90;98096.00;;;;4889563;28;109424;-68
2023/11/04 10:44:27;;;;;;;1.13;0.50;;;15.40;76.00;15.10;98101.00;;;;4897439;28;87866;-69
2023/11/04 10:47:31;;;;;;;1.95;0.80;;;14.90;77.30;15.40;98102.00;;;;4876298;28;89301;-68
2023/11/04 10:50:15;;;;;;;2.13;0.40;;;15.20;76.40;15.70;98099.00;;;;4887145;28;88077;-69
2023/11/04 10:52:59;;;;;;;0.75;0.28;;;15.50;77.50;15.80;98092.00;;;;4907236;28;87653;-67
2023/11/04 10:55:31;;;;;;;1.67;1.45;;;15.60;75.80;15.80;98086.00;;;;4889753;28;88198;-67
2023/11/04 10:58:07;;;;;;;2.67;0.80;;;15.60;74.50;15.70;98081.00;;;;4903850;28;91393;-67